Monday, December 18, 2017, 4:39 AM CST
Back to Local

KLWC, Lawrence Municipal Airport

Location: Lawrence, KS, United States Lat: 39.017
Local Time: 4:39 AM CST (10:39 GMT) Lon: -95.217
Time Zone: US/Central Elev: 833 ft

Show me the last for .
Show Decoded

2017-12-18 03:52 METAR KLWC 180952Z AUTO 29003KT 6SM BR CLR 04/03 A3003 RMK AO2 SLP173 T00440033
                 =
2017-12-18 02:52 METAR KLWC 180852Z AUTO 21006KT 8SM OVC034 07/05 A3003 RMK AO2 SLP171 T00720050
                 55003 =
2017-12-18 01:52 METAR KLWC 180752Z AUTO 21007KT 8SM OVC035 07/06 A3002 RMK AO2 SLP167 T00720056
                 =
2017-12-18 00:52 METAR KLWC 180652Z AUTO 21006KT 8SM OVC037 07/06 A3002 RMK AO2 SLP168 T00720056
                 =
2017-12-18 00:35 METAR KLWC 180635Z AUTO 18006KT 8SM SCT027 OVC037 07/06 A3003 RMK AO2 T00720056
                 =
2017-12-17 23:52 METAR KLWC 180552Z AUTO 24003KT 8SM OVC021 07/06 A3004 RMK AO2 SLP174 T00720056
                 10089 20061 401000050 53007 =
2017-12-17 23:31 METAR KLWC 180531Z AUTO 25004KT 8SM BKN022 OVC038 07/06 A3004 RMK AO2 T00720056
                 =
2017-12-17 22:52 METAR KLWC 180452Z AUTO 21009KT 8SM OVC039 07/06 A3003 RMK AO2 SLP172 T00720056
                 =
2017-12-17 21:52 METAR KLWC 180352Z AUTO 19010KT 7SM FEW042 07/06 A3003 RMK AO2 SLP170 T00670056
                 =
2017-12-17 20:52 METAR KLWC 180252Z AUTO 18010KT 6SM BR CLR 07/06 A3002 RMK AO2 SLP168 T00670056
                 51008 =
2017-12-17 19:52 METAR KLWC 180152Z AUTO 16005KT 7SM CLR 07/06 A3002 RMK AO2 SLP166 T00670056 =
2017-12-17 18:52 METAR KLWC 180052Z AUTO 16007KT 8SM FEW025 OVC045 09/07 A3002 RMK AO2 SLP167
                 T00890067 =
2017-12-17 18:43 METAR KLWC 180043Z AUTO 16007KT 9SM SCT025 OVC043 09/07 A3001 RMK AO2 T00890067
                 =
2017-12-17 18:12 METAR KLWC 180012Z AUTO 17006KT 9SM BKN023 OVC041 09/07 A3001 RMK AO2 T00890067
                 =
2017-12-17 17:52 METAR KLWC 172352Z AUTO 16006KT 8SM OVC040 08/07 A3000 RMK AO2 SLP160 T00830067
                 10100 20078 52006 =
2017-12-17 16:52 METAR KLWC 172252Z AUTO 15005KT 10SM FEW024 OVC038 09/07 A2999 RMK AO2 SLP158
                 T00890067 =
2017-12-17 15:52 METAR KLWC 172152Z AUTO 15003KT 10SM SCT017 OVC034 10/07 A2999 RMK AO2 SLP155
                 T01000067 =
2017-12-17 14:52 METAR KLWC 172052Z AUTO 00000KT 10SM OVC019 10/06 A2998 RMK AO2 SLP153 T01000061
                 55006 =
2017-12-17 14:00 METAR KLWC 172000Z AUTO 00000KT 10SM BKN017 OVC033 10/07 A2997 RMK AO2 T01000067
                 =
2017-12-17 13:52 METAR KLWC 171952Z AUTO 00000KT 10SM SCT017 OVC033 10/07 A2997 RMK AO2 SLP149
                 T01000067 =
2017-12-17 13:30 METAR KLWC 171930Z AUTO 21003KT 10SM SCT024 OVC032 09/07 A2997 RMK AO2 T00940067
                 =
2017-12-17 13:08 METAR KLWC 171908Z AUTO 29005KT 10SM FEW014 OVC022 09/07 A2996 RMK AO2 T00890067
                 =
2017-12-17 12:52 METAR KLWC 171852Z AUTO 29007KT 10SM BKN014 OVC020 09/07 A2997 RMK AO2 SLP151
                 T00890067 =
2017-12-17 12:41 METAR KLWC 171841Z AUTO 28007KT 10SM OVC014 09/07 A2998 RMK AO2 T00940067 =
2017-12-17 12:28 METAR KLWC 171828Z AUTO 23009KT 10SM BKN015 OVC019 09/07 A2998 RMK AO2 T00940072
                 =
2017-12-17 11:52 METAR KLWC 171752Z AUTO 24007KT 9SM OVC013 09/07 A3000 RMK AO2 SLP159 60008
                 T00890072 10094 20061 58014 =
2017-12-17 11:44 METAR KLWC 171744Z AUTO 23009KT 9SM BKN011 OVC016 09/07 A3000 RMK AO2 T00890072
                 =
2017-12-17 11:02 METAR KLWC 171702Z AUTO 22007KT 10SM OVC015 08/07 A3003 RMK AO2 T00830072 =
2017-12-17 10:52 METAR KLWC 171652Z AUTO 22007KT 10SM OVC012 08/07 A3003 RMK AO2 SLP173 T00830067
                 =
2017-12-17 09:59 METAR KLWC 171559Z AUTO 20007KT 10SM OVC010 08/07 A3003 RMK AO2 CIG 006V013
                 T00780072 =
2017-12-17 09:52 METAR KLWC 171552Z AUTO 20006KT 8SM OVC008 08/07 A3003 RMK AO2 CIG 006V012
                 SLP172 T00780067 =
2017-12-17 08:52 METAR KLWC 171452Z AUTO 17007KT 7SM OVC006 07/07 A3004 RMK AO2 CIG 005V009
                 SLP175 60008 T00670067 53016 =
2017-12-17 08:30 METAR KLWC 171430Z AUTO 16005KT 3SM BR OVC006 07/07 A3002 RMK AO2 CIG 005V012
                 T00670067 =
2017-12-17 07:52 METAR KLWC 171352Z AUTO 16006KT 2SM BR OVC006 06/06 A3002 RMK AO2 RAE09B38E52
                 SLP170 P0001 T00610061 =
2017-12-17 07:43 METAR KLWC 171343Z AUTO 15004KT 2SM -RA BR OVC007 06/06 A3002 RMK AO2 RAE09B38
                 P0001 T00610061 =
2017-12-17 07:15 METAR KLWC 171315Z AUTO 12004KT 4SM BR BKN008 BKN030 OVC080 06/06 A3000 RMK AO2
                 RAE09 P0000 T00610056 =
2017-12-17 07:07 METAR KLWC 171307Z AUTO 10004KT 4SM -RA BR SCT008 BKN028 OVC060 06/06 A3000 RMK
                 AO2 P0000 T00610056 =
2017-12-17 06:52 METAR KLWC 171252Z AUTO 09004KT 3SM -RA BR FEW010 SCT025 OVC031 06/06 A2999 RMK
                 AO2 SLP158 P0007 T00610061 =
2017-12-17 05:52 METAR KLWC 171152Z AUTO 12003KT 4SM -RA BR FEW009 BKN022 OVC031 06/06 A2999 RMK
                 AO2 SLP158 P0011 60014 70014 T00610056 10083 20050 53005 =
2017-12-17 05:37 METAR KLWC 171137Z AUTO 11003KT 4SM -RA BR SCT009 OVC020 06/06 A2999 RMK AO2
                 P0009 T00610056 =
2017-12-17 05:21 METAR KLWC 171121Z AUTO 09003KT 4SM -RA BR BKN009 BKN018 OVC031 06/06 A2999 RMK
                 AO2 P0006 T00610056 =
2017-12-17 05:05 METAR KLWC 171105Z AUTO 14003KT 5SM -RA BR SCT008 OVC028 06/06 A2999 RMK AO2
                 P0002 T00610056 =
2017-12-17 04:52 METAR KLWC 171052Z AUTO 15003KT 5SM -RA BR OVC027 06/05 A2999 RMK AO2 SLP156
                 P0002 T00610050 =

Support USWX by starting your Amazon purchase here.